createdAt,value
2022-12-11T00:02:08.668Z,1.90
2022-12-11T00:04:35.405Z,1.80
2022-12-11T00:07:02.043Z,1.90
2022-12-11T00:09:28.754Z,1.80
2022-12-11T00:11:55.357Z,1.90
2022-12-11T00:14:22.008Z,1.90
2022-12-11T00:16:48.643Z,1.90
2022-12-11T00:19:15.864Z,1.90
2022-12-11T00:21:42.517Z,1.90
2022-12-11T00:24:09.170Z,1.90
2022-12-11T00:26:35.764Z,1.90
2022-12-11T00:29:02.413Z,1.80
2022-12-11T00:31:29.202Z,1.80
2022-12-11T00:33:55.822Z,1.80
2022-12-11T00:36:24.135Z,1.80
2022-12-11T00:38:50.931Z,1.90
2022-12-11T00:41:17.750Z,1.80
2022-12-11T00:43:44.422Z,1.80
2022-12-11T00:46:11.257Z,1.80
2022-12-11T00:48:38.231Z,1.80
2022-12-11T00:51:05.079Z,1.80
2022-12-11T00:53:31.710Z,1.80
2022-12-11T00:55:58.401Z,1.80
2022-12-11T00:58:25.118Z,1.80
2022-12-11T01:00:52.082Z,1.80
2022-12-11T01:03:18.688Z,1.80
2022-12-11T01:05:53.008Z,1.80
2022-12-11T01:08:19.668Z,1.80
2022-12-11T01:10:46.470Z,1.80
2022-12-11T01:13:13.135Z,1.70
2022-12-11T01:15:43.494Z,1.80
2022-12-11T01:18:11.049Z,1.70
2022-12-11T01:20:39.317Z,1.70
2022-12-11T01:23:06.025Z,1.70
2022-12-11T01:25:32.866Z,1.70
2022-12-11T01:27:59.538Z,1.70
2022-12-11T01:30:26.602Z,1.70
2022-12-11T01:32:53.488Z,1.70
2022-12-11T01:35:20.277Z,1.70
2022-12-11T01:37:46.929Z,1.70
2022-12-11T01:40:14.337Z,1.70
2022-12-11T01:42:41.024Z,1.70
2022-12-11T01:45:26.644Z,1.70
2022-12-11T01:48:08.708Z,1.70
2022-12-11T01:50:48.276Z,1.70
2022-12-11T01:53:17.948Z,1.70
2022-12-11T01:55:44.635Z,1.70
2022-12-11T01:58:11.265Z,1.70
2022-12-11T02:03:23.516Z,1.80
2022-12-11T02:05:50.319Z,1.80
2022-12-11T02:08:17.000Z,1.80
2022-12-11T02:10:56.193Z,1.80
2022-12-11T02:13:27.771Z,1.80
2022-12-11T02:16:14.934Z,1.80
2022-12-11T02:18:46.762Z,1.80
2022-12-11T02:21:15.565Z,1.80
2022-12-11T02:24:06.476Z,1.80
2022-12-11T02:26:54.919Z,1.80
2022-12-11T02:29:26.243Z,1.80
2022-12-11T02:32:18.947Z,1.80
2022-12-11T02:35:20.191Z,1.80
2022-12-11T02:37:47.589Z,1.80
2022-12-11T02:40:15.400Z,1.80
2022-12-11T02:42:43.142Z,1.80
2022-12-11T02:45:10.448Z,1.80
2022-12-11T02:47:37.282Z,1.80
2022-12-11T02:50:04.237Z,1.80
2022-12-11T02:52:30.980Z,1.80
2022-12-11T02:54:58.004Z,1.80
2022-12-11T02:57:31.162Z,1.80
2022-12-11T02:59:57.893Z,1.80
2022-12-11T03:02:24.612Z,1.80
2022-12-11T03:04:51.394Z,1.80
2022-12-11T03:07:20.617Z,1.80
2022-12-11T03:09:47.707Z,1.80
2022-12-11T03:12:27.353Z,1.80
2022-12-11T03:14:53.979Z,1.80
2022-12-11T03:17:25.688Z,1.80
2022-12-11T03:20:10.312Z,1.80
2022-12-11T03:22:47.491Z,1.80
2022-12-11T03:25:36.881Z,1.80
2022-12-11T03:28:10.524Z,1.80
2022-12-11T03:30:37.330Z,1.80
2022-12-11T03:33:09.292Z,1.90
2022-12-11T03:35:45.711Z,1.90
2022-12-11T03:38:43.263Z,1.80
2022-12-11T03:41:09.902Z,1.80
2022-12-11T03:43:36.516Z,1.80
2022-12-11T03:46:03.217Z,1.80
2022-12-11T03:48:33.798Z,1.90
2022-12-11T03:51:01.752Z,1.90
2022-12-11T03:53:28.417Z,1.90
2022-12-11T03:55:55.272Z,1.90
2022-12-11T03:58:21.953Z,1.90
2022-12-11T04:00:48.741Z,1.80
2022-12-11T04:03:15.385Z,1.90
2022-12-11T04:05:43.632Z,1.90
2022-12-11T04:08:10.603Z,1.90
2022-12-11T04:10:37.418Z,1.90
2022-12-11T04:13:04.158Z,1.90
2022-12-11T04:15:30.838Z,1.90
2022-12-11T04:17:57.542Z,1.90
2022-12-11T04:20:24.223Z,1.90
2022-12-11T04:22:50.886Z,1.90
2022-12-11T04:25:17.645Z,1.90
2022-12-11T04:27:44.228Z,1.90
2022-12-11T04:30:13.836Z,1.90
2022-12-11T04:32:40.517Z,1.90
2022-12-11T04:35:08.741Z,1.90
2022-12-11T04:37:35.864Z,1.90
2022-12-11T04:40:03.673Z,1.90
2022-12-11T04:42:30.362Z,1.90
2022-12-11T04:44:56.982Z,1.90
2022-12-11T04:47:23.625Z,1.90
2022-12-11T04:49:50.204Z,1.90
2022-12-11T04:52:17.862Z,1.90
2022-12-11T04:54:44.481Z,1.90
2022-12-11T04:57:11.060Z,1.90
2022-12-11T04:59:37.765Z,1.90
2022-12-11T05:02:14.904Z,1.90
2022-12-11T05:04:41.594Z,2.00
2022-12-11T05:07:08.231Z,2.00
2022-12-11T05:09:35.780Z,1.90
2022-12-11T05:12:04.993Z,1.90
2022-12-11T05:14:31.632Z,2.00
2022-12-11T05:16:59.320Z,2.00
2022-12-11T05:19:26.036Z,2.00
2022-12-11T05:21:52.805Z,1.90
2022-12-11T05:24:19.466Z,2.00
2022-12-11T05:26:46.227Z,2.00
2022-12-11T05:29:12.824Z,2.00
2022-12-11T05:31:39.504Z,2.00
2022-12-11T05:34:06.270Z,2.00
2022-12-11T05:36:33.355Z,2.00
2022-12-11T05:39:00.223Z,2.00
2022-12-11T05:41:27.919Z,2.00
2022-12-11T05:43:54.704Z,2.00
2022-12-11T05:46:23.259Z,2.00
2022-12-11T05:48:51.081Z,2.00
2022-12-11T05:51:17.788Z,2.00
2022-12-11T05:53:44.980Z,2.00
2022-12-11T05:56:16.051Z,2.00
2022-12-11T05:58:43.047Z,2.00
2022-12-11T06:01:22.934Z,2.00
2022-12-11T06:03:49.583Z,2.00
2022-12-11T06:06:16.231Z,2.00
2022-12-11T06:08:42.893Z,2.00
2022-12-11T06:11:09.579Z,2.00
2022-12-11T06:13:36.224Z,2.00
2022-12-11T06:16:03.876Z,2.00
2022-12-11T06:18:30.749Z,2.00
2022-12-11T06:20:57.463Z,2.00
2022-12-11T06:23:24.198Z,2.00
2022-12-11T06:25:50.820Z,2.00
2022-12-11T06:28:17.422Z,2.00
2022-12-11T06:30:44.072Z,2.00
2022-12-11T06:33:11.014Z,2.00
2022-12-11T06:35:42.011Z,2.00
2022-12-11T06:38:09.733Z,2.00
2022-12-11T06:40:36.528Z,2.00
2022-12-11T06:43:03.109Z,2.00
2022-12-11T06:45:29.820Z,2.00
2022-12-11T06:47:56.548Z,2.00
2022-12-11T06:50:23.198Z,2.00
2022-12-11T06:52:49.891Z,2.00
2022-12-11T06:55:16.719Z,2.00
2022-12-11T06:57:43.354Z,2.00
2022-12-11T07:00:10.668Z,2.00
2022-12-11T07:02:37.475Z,2.00
2022-12-11T07:05:04.554Z,2.00
2022-12-11T07:07:32.373Z,2.00
2022-12-11T07:10:04.201Z,2.00
2022-12-11T07:12:34.441Z,2.00
2022-12-11T07:15:01.258Z,2.00
2022-12-11T07:17:29.011Z,2.00
2022-12-11T07:19:56.039Z,2.00
2022-12-11T07:22:22.833Z,2.00
2022-12-11T07:24:49.481Z,2.00
2022-12-11T07:27:16.137Z,2.00
2022-12-11T07:29:42.805Z,2.00
2022-12-11T07:32:09.591Z,2.00
2022-12-11T07:34:36.759Z,2.00
2022-12-11T07:37:03.650Z,2.00
2022-12-11T07:39:30.249Z,2.00
2022-12-11T07:41:56.943Z,2.00
2022-12-11T07:44:23.705Z,2.00
2022-12-11T07:46:50.341Z,2.00
2022-12-11T07:49:17.175Z,2.00
2022-12-11T07:51:43.879Z,2.00
2022-12-11T07:54:12.176Z,2.00
2022-12-11T07:56:41.849Z,2.00
2022-12-11T07:59:10.458Z,2.00
2022-12-11T08:01:40.256Z,2.00
2022-12-11T08:04:10.385Z,2.00
2022-12-11T08:06:37.569Z,2.00
2022-12-11T08:09:06.301Z,2.00
2022-12-11T08:11:33.043Z,2.00
2022-12-11T08:13:59.738Z,2.00
2022-12-11T08:16:26.614Z,2.00
2022-12-11T08:18:53.365Z,2.00
2022-12-11T08:21:21.909Z,2.00
2022-12-11T08:23:49.043Z,2.10
2022-12-11T08:26:27.023Z,2.10
2022-12-11T08:28:53.803Z,2.00
2022-12-11T08:31:22.727Z,2.10
2022-12-11T08:33:49.529Z,2.10
2022-12-11T08:36:17.808Z,2.10
2022-12-11T08:38:44.577Z,2.10
2022-12-11T08:41:12.980Z,2.10
2022-12-11T08:43:39.643Z,2.10
2022-12-11T08:46:06.355Z,2.10
2022-12-11T08:48:34.104Z,2.00
2022-12-11T08:51:01.756Z,2.00
2022-12-11T08:53:29.704Z,2.00
2022-12-11T08:56:07.226Z,2.00
2022-12-11T08:58:33.895Z,2.00
2022-12-11T09:01:00.634Z,2.00
2022-12-11T09:03:27.248Z,2.00
2022-12-11T09:05:53.844Z,2.00
2022-12-11T09:08:20.603Z,2.00
2022-12-11T09:10:47.283Z,2.00
2022-12-11T09:13:13.911Z,2.00
2022-12-11T09:15:41.049Z,2.00
2022-12-11T09:18:08.130Z,2.00
2022-12-11T09:20:34.813Z,2.00
2022-12-11T09:23:01.560Z,2.00
2022-12-11T09:25:28.162Z,2.00
2022-12-11T09:27:54.739Z,2.00
2022-12-11T09:30:21.345Z,2.00
2022-12-11T09:32:47.937Z,2.00
2022-12-11T09:35:14.571Z,2.00
2022-12-11T09:37:41.227Z,2.10
2022-12-11T09:40:10.717Z,2.10
2022-12-11T09:43:05.579Z,2.10
2022-12-11T09:45:32.128Z,2.10
2022-12-11T09:47:58.856Z,2.10
2022-12-11T09:50:35.680Z,2.10
2022-12-11T09:53:15.187Z,2.10
2022-12-11T09:56:20.812Z,2.10
2022-12-11T09:58:56.357Z,2.20
2022-12-11T10:01:39.544Z,2.20
2022-12-11T10:04:36.577Z,2.20
2022-12-11T10:07:13.394Z,2.20
2022-12-11T10:09:49.763Z,2.30
2022-12-11T10:12:26.200Z,2.30
2022-12-11T10:15:30.165Z,2.30
2022-12-11T10:18:02.907Z,2.40
2022-12-11T10:20:35.434Z,2.40
2022-12-11T10:23:03.038Z,2.40
2022-12-11T10:25:37.913Z,2.40
2022-12-11T10:28:17.109Z,2.40
2022-12-11T10:30:58.560Z,2.40
2022-12-11T10:33:43.672Z,2.40
2022-12-11T10:36:10.652Z,2.50
2022-12-11T10:38:43.872Z,2.50
2022-12-11T10:41:17.412Z,2.50
2022-12-11T10:43:45.548Z,2.40
2022-12-11T10:46:20.411Z,2.40
2022-12-11T10:48:51.617Z,2.40
2022-12-11T10:51:18.256Z,2.40
2022-12-11T10:53:50.358Z,2.40
2022-12-11T10:56:27.764Z,2.40
2022-12-11T10:58:54.367Z,2.40
2022-12-11T11:01:23.050Z,2.40
2022-12-11T11:04:23.932Z,2.40
2022-12-11T11:07:04.605Z,2.40
2022-12-11T11:09:35.673Z,2.40
2022-12-11T11:12:08.060Z,2.40
2022-12-11T11:18:11.321Z,2.40
2022-12-11T11:20:43.815Z,2.40
2022-12-11T11:26:02.475Z,2.40
2022-12-11T11:28:41.039Z,2.40
2022-12-11T11:31:12.140Z,2.40
2022-12-11T11:33:55.835Z,2.40
2022-12-11T11:36:24.772Z,2.40
2022-12-11T11:39:02.680Z,2.40
2022-12-11T11:41:53.216Z,2.40
2022-12-11T11:44:31.689Z,2.40
2022-12-11T11:47:10.400Z,2.40
2022-12-11T11:50:06.454Z,2.40
2022-12-11T11:52:35.794Z,2.40
2022-12-11T11:55:09.843Z,2.50
2022-12-11T11:57:40.039Z,2.50
2022-12-11T12:00:18.522Z,2.50
2022-12-11T12:02:45.192Z,2.50
2022-12-11T12:05:14.984Z,2.50
2022-12-11T12:08:00.581Z,2.50
2022-12-11T12:10:35.714Z,2.50
2022-12-11T12:13:48.515Z,2.50
2022-12-11T12:16:56.377Z,2.60
2022-12-11T12:19:59.065Z,2.50
2022-12-11T12:22:44.961Z,2.50
2022-12-11T12:25:41.212Z,2.50
2022-12-11T12:28:52.453Z,2.50
2022-12-11T12:31:39.195Z,2.40
2022-12-11T12:34:27.982Z,2.40
2022-12-11T12:37:06.742Z,2.50
2022-12-11T12:39:36.278Z,2.50
2022-12-11T12:42:23.909Z,2.40
2022-12-11T12:45:12.781Z,2.40
2022-12-11T12:47:51.864Z,2.40
2022-12-11T12:50:27.253Z,2.40
2022-12-11T12:52:54.138Z,2.40
2022-12-11T12:55:21.559Z,2.40
2022-12-11T12:58:08.169Z,2.40
2022-12-11T13:00:43.298Z,2.40
2022-12-11T13:03:22.878Z,2.40
2022-12-11T13:06:06.418Z,2.40
2022-12-11T13:08:48.675Z,2.40
2022-12-11T13:11:20.411Z,2.40
2022-12-11T13:14:09.093Z,2.40
2022-12-11T13:16:40.479Z,2.40
2022-12-11T13:19:42.728Z,2.40
2022-12-11T13:22:24.019Z,2.40
2022-12-11T13:25:02.649Z,2.40
2022-12-11T13:27:40.079Z,2.40
2022-12-11T13:30:27.709Z,2.40
2022-12-11T13:33:06.570Z,2.50
2022-12-11T13:35:34.981Z,2.50
2022-12-11T13:38:04.934Z,2.50
2022-12-11T13:40:43.248Z,2.50
2022-12-11T13:43:28.155Z,2.50
2022-12-11T13:46:02.643Z,2.50
2022-12-11T13:48:37.621Z,2.50
2022-12-11T13:51:04.813Z,2.50
2022-12-11T13:53:32.241Z,2.50
2022-12-11T13:56:10.209Z,2.50
2022-12-11T13:58:41.205Z,2.50
2022-12-11T14:01:53.731Z,2.50
2022-12-11T14:04:28.354Z,2.50
2022-12-11T14:06:58.813Z,2.50
2022-12-11T14:09:27.066Z,2.50
2022-12-11T14:11:57.051Z,2.50
2022-12-11T14:14:36.917Z,2.50
2022-12-11T14:17:08.636Z,2.50
2022-12-11T14:19:51.109Z,2.50
2022-12-11T14:22:25.686Z,2.50
2022-12-11T14:24:54.754Z,2.50
2022-12-11T14:27:25.994Z,2.50
2022-12-11T14:29:53.877Z,2.50
2022-12-11T14:32:47.404Z,2.50
2022-12-11T14:35:52.224Z,2.50
2022-12-11T14:38:38.012Z,2.50
2022-12-11T14:41:36.152Z,2.50
2022-12-11T14:44:09.139Z,2.50
2022-12-11T14:46:37.903Z,2.50
2022-12-11T14:49:18.129Z,2.50
2022-12-11T14:51:46.087Z,2.50
2022-12-11T14:54:36.989Z,2.50
2022-12-11T14:57:05.722Z,2.50
2022-12-11T14:59:46.847Z,2.50
2022-12-11T15:02:32.943Z,2.50
2022-12-11T15:05:18.281Z,2.40
2022-12-11T15:08:21.193Z,2.50
2022-12-11T15:11:16.122Z,2.40
2022-12-11T15:14:09.190Z,2.50
2022-12-11T15:16:42.587Z,2.40
2022-12-11T15:19:24.731Z,2.40
2022-12-11T15:21:52.223Z,2.40
2022-12-11T15:24:30.788Z,2.40
2022-12-11T15:27:01.308Z,2.30
2022-12-11T15:29:37.976Z,2.40
2022-12-11T15:32:17.601Z,2.30
2022-12-11T15:34:58.750Z,2.30
2022-12-11T15:37:31.383Z,2.30
2022-12-11T15:40:00.954Z,2.40
2022-12-11T15:42:46.962Z,2.40
2022-12-11T15:45:34.239Z,2.30
2022-12-11T15:48:03.486Z,2.30
2022-12-11T15:50:31.809Z,2.30
2022-12-11T15:53:00.300Z,2.30
2022-12-11T15:55:27.506Z,2.30
2022-12-11T15:57:56.930Z,2.30
2022-12-11T16:00:25.665Z,2.30
2022-12-11T16:02:57.725Z,2.30
2022-12-11T16:05:29.549Z,2.30
2022-12-11T16:07:57.076Z,2.30
2022-12-11T16:10:27.893Z,2.30
2022-12-11T16:13:02.258Z,2.30
2022-12-11T16:15:30.070Z,2.30
2022-12-11T16:18:03.442Z,2.30
2022-12-11T16:20:31.717Z,2.30
2022-12-11T16:23:01.796Z,2.30
2022-12-11T16:25:31.192Z,2.30
2022-12-11T16:27:59.845Z,2.20
2022-12-11T16:30:33.408Z,2.30
2022-12-11T16:33:08.611Z,2.20
2022-12-11T16:35:39.876Z,2.30
2022-12-11T16:38:09.180Z,2.20
2022-12-11T16:40:40.457Z,2.20
2022-12-11T16:43:08.925Z,2.20
2022-12-11T16:45:36.246Z,2.20
2022-12-11T16:48:05.955Z,2.20
2022-12-11T16:50:35.351Z,2.20
2022-12-11T16:53:03.449Z,2.20
2022-12-11T16:55:33.443Z,2.20
2022-12-11T16:58:04.506Z,2.20
2022-12-11T17:00:31.404Z,2.20
2022-12-11T17:03:05.818Z,2.20
2022-12-11T17:05:36.090Z,2.20
2022-12-11T17:08:04.910Z,2.20
2022-12-11T17:10:31.967Z,2.20
2022-12-11T17:13:01.134Z,2.20
2022-12-11T17:15:29.197Z,2.20
2022-12-11T17:17:58.597Z,2.20
2022-12-11T17:20:28.048Z,2.20
2022-12-11T17:22:57.077Z,2.10
2022-12-11T17:25:25.761Z,2.10
2022-12-11T17:27:53.991Z,2.10
2022-12-11T17:30:22.318Z,2.10
2022-12-11T17:32:52.129Z,2.10
2022-12-11T17:35:19.707Z,2.10
2022-12-11T17:37:48.720Z,2.10
2022-12-11T17:40:16.058Z,2.10
2022-12-11T17:42:43.179Z,2.10
2022-12-11T17:45:13.609Z,2.10
2022-12-11T17:47:41.417Z,2.10
2022-12-11T17:50:11.917Z,2.10
2022-12-11T17:52:43.967Z,2.10
2022-12-11T17:55:13.387Z,2.10
2022-12-11T17:57:41.968Z,2.10
2022-12-11T18:00:12.715Z,2.10
2022-12-11T18:02:40.095Z,2.10
2022-12-11T18:05:07.034Z,2.10
2022-12-11T18:07:36.967Z,2.10
2022-12-11T18:10:03.914Z,2.10
2022-12-11T18:12:30.642Z,2.10
2022-12-11T18:15:01.374Z,2.10
2022-12-11T18:17:28.384Z,2.00
2022-12-11T18:19:55.067Z,2.10
2022-12-11T18:22:21.778Z,2.00
2022-12-11T18:24:48.471Z,2.10
2022-12-11T18:27:15.312Z,2.10
2022-12-11T18:29:42.820Z,2.10
2022-12-11T18:32:09.841Z,2.10
2022-12-11T18:34:36.861Z,2.00
2022-12-11T18:37:05.595Z,2.10
2022-12-11T18:39:32.686Z,2.00
2022-12-11T18:42:31.173Z,2.00
2022-12-11T18:44:46.743Z,2.00
2022-12-11T18:47:13.734Z,2.00
2022-12-11T18:49:40.871Z,2.00
2022-12-11T18:52:10.901Z,2.00
2022-12-11T18:54:37.879Z,2.00
2022-12-11T18:57:04.933Z,2.00
2022-12-11T18:59:31.817Z,2.10
2022-12-11T19:01:58.547Z,2.00
2022-12-11T19:04:25.184Z,2.00
2022-12-11T19:06:51.849Z,2.00
2022-12-11T19:09:18.515Z,2.00
2022-12-11T19:11:45.490Z,2.00
2022-12-11T19:14:12.625Z,2.00
2022-12-11T19:16:41.208Z,2.00
2022-12-11T19:19:28.258Z,2.00
2022-12-11T19:21:55.007Z,2.00
2022-12-11T19:24:22.345Z,2.00
2022-12-11T19:26:49.534Z,2.00
2022-12-11T19:29:25.479Z,2.00
2022-12-11T19:31:52.470Z,2.00
2022-12-11T19:34:19.332Z,2.00
2022-12-11T19:36:46.152Z,2.00
2022-12-11T19:39:13.466Z,2.00
2022-12-11T19:41:40.529Z,2.00
2022-12-11T19:44:07.197Z,2.00
2022-12-11T19:46:34.172Z,2.00
2022-12-11T19:49:01.110Z,2.00
2022-12-11T19:51:30.094Z,2.00
2022-12-11T19:53:57.257Z,1.90
2022-12-11T19:56:24.137Z,1.90
2022-12-11T19:58:50.970Z,2.00
2022-12-11T20:01:22.157Z,1.90
2022-12-11T20:03:49.086Z,1.90
2022-12-11T20:06:15.937Z,1.90
2022-12-11T20:08:45.716Z,1.90
2022-12-11T20:11:17.855Z,1.90
2022-12-11T20:13:45.622Z,1.90
2022-12-11T20:16:12.623Z,1.90
2022-12-11T20:18:40.348Z,1.90
2022-12-11T20:21:14.961Z,1.90
2022-12-11T20:23:42.094Z,1.90
2022-12-11T20:26:13.880Z,1.90
2022-12-11T20:28:40.544Z,1.90
2022-12-11T20:31:20.305Z,1.90
2022-12-11T20:33:47.752Z,1.90
2022-12-11T20:36:14.998Z,1.80
2022-12-11T20:38:42.208Z,1.90
2022-12-11T20:41:11.124Z,1.90
2022-12-11T20:43:38.096Z,1.90
2022-12-11T20:46:12.107Z,1.80
2022-12-11T20:48:39.044Z,1.80
2022-12-11T20:51:07.063Z,1.70
2022-12-11T20:53:34.462Z,1.60
2022-12-11T20:56:01.875Z,1.50
2022-12-11T20:58:42.065Z,1.50
2022-12-11T21:01:52.695Z,1.40
2022-12-11T21:04:20.261Z,1.30
2022-12-11T21:06:47.052Z,1.30
2022-12-11T21:09:16.097Z,1.30
2022-12-11T21:11:43.352Z,1.20
2022-12-11T21:14:10.203Z,1.20
2022-12-11T21:16:37.223Z,1.20
2022-12-11T21:19:04.234Z,1.20
2022-12-11T21:21:34.584Z,1.20
2022-12-11T21:24:01.207Z,1.20
2022-12-11T21:26:30.188Z,1.30
2022-12-11T21:28:56.895Z,1.30
2022-12-11T21:31:23.708Z,1.30
2022-12-11T21:33:50.507Z,1.40
2022-12-11T21:36:17.680Z,1.40
2022-12-11T21:38:44.969Z,1.40
2022-12-11T21:41:22.432Z,1.40
2022-12-11T21:45:06.992Z,1.50
2022-12-11T21:46:36.976Z,1.50
2022-12-11T21:49:03.732Z,1.50
2022-12-11T21:51:36.465Z,1.50
2022-12-11T21:54:05.374Z,1.50
2022-12-11T21:56:32.130Z,1.40
2022-12-11T21:58:58.908Z,1.40
2022-12-11T22:01:30.027Z,1.50
2022-12-11T22:03:57.280Z,1.40
2022-12-11T22:06:24.012Z,1.40
2022-12-11T22:08:50.873Z,1.40
2022-12-11T22:11:23.440Z,1.40
2022-12-11T22:13:50.204Z,1.40
2022-12-11T22:16:17.290Z,1.40
2022-12-11T22:18:44.037Z,1.40
2022-12-11T22:21:10.767Z,1.40
2022-12-11T22:23:38.289Z,1.40
2022-12-11T22:26:08.727Z,1.40
2022-12-11T22:28:35.467Z,1.40
2022-12-11T22:31:02.231Z,1.30
2022-12-11T22:33:28.922Z,1.30
2022-12-11T22:35:58.192Z,1.30
2022-12-11T22:38:25.331Z,1.30
2022-12-11T22:40:52.755Z,1.20
2022-12-11T22:43:19.399Z,1.20
2022-12-11T22:45:46.336Z,1.20
2022-12-11T22:48:14.091Z,1.10
2022-12-11T22:50:41.231Z,1.10
2022-12-11T22:53:08.040Z,1.00
2022-12-11T22:55:34.927Z,1.00
2022-12-11T22:58:01.645Z,0.90
2022-12-11T23:00:28.260Z,0.80
2022-12-11T23:02:55.075Z,0.70
2022-12-11T23:05:21.951Z,0.70
2022-12-11T23:07:48.668Z,0.60
2022-12-11T23:10:15.427Z,0.50
2022-12-11T23:12:42.021Z,0.50
2022-12-11T23:15:09.130Z,0.40
2022-12-11T23:17:35.996Z,0.40
2022-12-11T23:20:04.285Z,0.30
2022-12-11T23:22:31.220Z,0.30
2022-12-11T23:24:57.945Z,0.20
2022-12-11T23:27:24.583Z,0.20
2022-12-11T23:29:51.268Z,0.20
2022-12-11T23:32:17.941Z,0.10
2022-12-11T23:34:44.582Z,0.10
2022-12-11T23:37:11.317Z,0.00
2022-12-11T23:39:37.973Z,0.00
2022-12-11T23:42:04.758Z,0.00
2022-12-11T23:44:31.429Z,-0.10
2022-12-11T23:46:58.241Z,-0.10
2022-12-11T23:49:25.057Z,-0.10
2022-12-11T23:51:51.737Z,-0.10
2022-12-11T23:54:18.403Z,-0.20
2022-12-11T23:56:45.139Z,-0.20
2022-12-11T23:59:13.023Z,-0.20
